spacer link to MAST page spacer logo image spacer
 
link to STScI page


Planned outage -- MAST Services will be unavailable Tuesday 16 January 2018, 09:00 to 17:00 EST (14:00 to 22:00 GMT) for system upgrades. We apologize for the inconvenience.

Copernicus Target List

The following raw data files contain the complete set of Copernicus scans for a particular object. The naming convention used for these files is cnnn.pep. The 3 digit number in the file name represents the original Copernicus target number. All files are in FITS format, but we have maintained the .pep extension for consistency with the FITS header keywords. The primary header contains general data describing the target (e.g. object name, coordinates, magnitude, etc.) All other data is stored in a binary table extension with non-scalar data stored using the (not yet approved) variable length array facility. Each row of the binary table contains the information for one observing scan, with scans stored in chronological order starting with the earliest data.

The Object Names provide links to the first 30 or so lines of the FITS file header, which contain additional target information. The data files themselves are available under the FITS File column. Scans from all 6 detectors (i.e. U1, U2, U3, V1, V2, V3) are included. The largest file (Zeta Oph = c002.pep) contains roughly 23,000 scans in 123,000 FITS records. However, most of the 551 files are much smaller. The average file size is on the order of 1 MB per 1000 scans, although there is wide variation among the files.


   Object          RA        Dec       HD      FITS     No.
    Name             (2000.0)        Number    File    Scans
------------------------------------------------------------
Alpha And       00:08:23  +29:05:28     358  c078.pep   2268
Beta Cas        00:09:11  +59:09:00     432  c250.pep    222
Epsilon Phe     00:09:25  -45:44:53     496  c513.pep     84
Gamma Peg       00:13:14  +15:11:02     886  c015.pep   5400
AO Cas          00:17:43  +51:25:59    1337  c355.pep     48
Zeta Tuc        00:20:04  -64:52:30    1581  c546.pep     54
47 Tuc          00:24:06  -72:04:00          c314.pep    793
Beta Hyi        00:25:45  -77:15:14    2151  c317.pep   1031
Kappa Cas       00:33:00  +62:55:55    2905  c165.pep   2397
Pi And          00:36:53  +33:43:08    3369  c495.pep      6
Zeta Cas        00:36:58  +53:53:49    3360  c256.pep    470
Alpha Cas       00:40:30  +56:32:13    3712  c406.pep    173
Beta Cet        00:43:36  -17:59:13    4128  c412.pep     32
Zeta And        00:47:20  +24:16:01    4502  c351.pep   2411
Eta Cas A       00:49:06  +57:48:58    4614  c337.pep   1608
Gamma Cas       00:56:42  +60:43:01    5394  c084.pep   5531
Alpha Scl       00:58:36  -29:21:29    5737  c247.pep    533
Beta And        01:09:44  +35:37:16    6860  c446.pep     66
Delta Phe       01:31:15  -49:04:23    9362  c550.pep     60
Eta Psc         01:31:29  +15:20:46    9270  c450.pep     48
Alpha Eri       01:37:43  -57:14:13   10144  c010.pep   3576
51 And          01:38:00  +48:37:41    9927  c397.pep    349
Phi Per         01:43:40  +50:41:20   10516  c072.pep   2795
Tau Cet         01:44:04  -15:56:17   10700  c245.pep   1911
Alpha Tri       01:53:05  +29:34:44   11443  c388.pep     72
Epsilon Cas     01:54:24  +63:40:12   11415  c249.pep     88
Alpha Ari       02:07:10  +23:27:47   12929  c418.pep     48
Beta Tri        02:09:33  +34:59:13   13161  c341.pep    440
Phi Eri         02:16:30  -51:30:43   14228  c011.pep    811
Omicron Cet     02:19:21  -02:58:37   14386  c257.pep    174
HD 14633        02:22:54  +41:28:47   14633  c184.pep    263
Kappa Eri       02:26:59  -47:42:14   15371  c483.pep     12
Alpha UMi       02:31:49  +89:15:50    8890  c445.pep     90
Delta Cet       02:39:29  +00:19:44   16582  c339.pep    231
Iota Eri        02:40:40  -39:51:22   16815  c526.pep     42
Pi Cet          02:44:07  -13:51:32   17081  c144.pep    474
Beta For        02:49:05  -32:24:22   17652  c487.pep    168
41 Ari          02:49:59  +27:15:40   17573  c486.pep      6
16 Per          02:50:35  +38:19:08   17584  c492.pep     30
Alpha Cet       03:02:17  +04:05:24   18884  c419.pep    126
Gamma Per       03:04:48  +53:30:22   18925  c074.pep     64
Beta Per        03:08:10  +40:57:22   19356  c073.pep   2576
Alpha For       03:12:04  -28:59:13   20010  c392.pep     99
29 Per          03:18:38  +50:13:19   20365  c549.pep      5
Alpha Per       03:24:19  +49:51:40   20902  c441.pep    106
Omicron Tau     03:24:49  +09:01:44   21120  c391.pep    172
UX Ari          03:26:35  +28:42:59   21242  c329.pep   2855
HD 21278        03:28:03  +49:03:47   21278  c020.pep   2071
HD 21856        03:32:40  +35:27:43   21856  c191.pep    723
Epsilon Eri     03:32:56  -09:27:29   22049  c088.pep   7266
19 Eri          03:33:47  -21:37:59   22203  c395.pep     24
Psi Per         03:36:30  +48:11:35   22192  c252.pep    635
HR 1099         03:36:47  +00:35:17   22468  c330.pep  15621
10 Tau          03:36:52  +00:24:07   22484  c482.pep    276
40 Per          03:42:23  +33:57:54   22951  c082.pep   2256
Delta Per       03:42:55  +47:47:13   22928  c019.pep   6614
Delta Eri       03:43:15  -09:45:47   23249  c335.pep    906
Beta Ret        03:44:12  -64:48:25   23817  c493.pep     60
Omicron Per     03:44:19  +32:17:17   23180  c075.pep   8044
Nu Per          03:45:12  +42:34:44   23230  c404.pep    156
20 Tau          03:45:50  +24:22:05   23408  c040.pep   3332
23 Tau          03:46:20  +23:56:53   23480  c093.pep   2945
Tau6 Eri        03:46:51  -23:15:00   23754  c489.pep     42
Gamma Hyi       03:47:14  -74:14:20   24512  c470.pep     48
Eta Tau         03:47:29  +24:06:18   23630  c039.pep   1847
27 Tau          03:49:10  +24:03:11   23850  c421.pep      5
28 Tau          03:49:11  +24:08:13   23862  c528.pep     34
Tau8 Eri        03:53:43  -24:36:43   24587  c499.pep     41
Zeta Per        03:54:08  +31:53:02   24398  c016.pep   7018
X Per           03:55:23  +31:02:45   24534  c032.pep   1247
Epsilon Per     03:57:51  +40:00:36   24760  c018.pep   5358
Gamma Eri       03:58:02  -13:30:32   25025  c413.pep    170
Xi Per          03:58:58  +35:47:28   24912  c017.pep   7737
Lambda Tau      04:00:41  +12:29:24   25204  c366.pep   3256
37 Tau          04:04:42  +22:04:55   25604  c501.pep     42
48 Per          04:08:40  +47:42:47   25940  c171.pep    723
Omicron1 Eri    04:11:52  -06:50:17   26574  c498.pep     34
HD 29138        04:13:48  -84:29:09   29138  c230.pep     34
Alpha Ret       04:14:25  -62:28:26   27256  c394.pep    124
Omicron2 Eri    04:15:16  -07:39:11   26965  c334.pep   1583
Mu Tau          04:15:32  +08:53:31   26912  c420.pep      6
41 Eri          04:17:54  -33:47:53   27376  c403.pep      5
Epsilon Tau     04:28:37  +19:10:48   28305  c423.pep     53
HD 28497        04:29:07  -13:02:55   28497  c079.pep   4134
Delta Cae       04:30:50  -44:57:14   28873  c522.pep     12
Alpha Tau       04:35:55  +16:30:32   29139  c041.pep   2675
Nu Eri          04:36:19  -03:21:07   29248  c261.pep   1021
58 Per          04:36:42  +41:15:54   29094  c547.pep     52
Mu Eri          04:45:30  -03:15:18   30211  c456.pep      6
Pi4 Ori         04:51:12  +05:36:18   30836  c548.pep    216
Alpha Cam       04:54:03  +66:20:35   30614  c021.pep   6976
Pi5 Ori         04:54:15  +02:26:28   31237  c137.pep   1069
Iota Aur        04:57:00  +33:09:58   31398  c422.pep    192
Psi Eri         05:01:26  -07:10:26   32249  c529.pep     12
Epsilon Aur     05:01:58  +43:49:23   31964  c094.pep     18
Beta Cam        05:03:25  +60:26:31   31910  c551.pep     56
Epsilon Lep     05:05:28  -22:22:16   32887  c440.pep    192
11 Cam          05:06:08  +58:58:19   32343  c521.pep     30
Eta Aur         05:06:31  +41:14:02   32630  c365.pep   2027
Beta Eri        05:07:51  -05:05:10   33111  c353.pep     20
Lambda Eri      05:09:09  -08:45:14   33328  c170.pep   1358
Mu Lep          05:12:56  -16:12:22   33904  c136.pep   1423
NGC 1851        05:14:00  -40:02:00          c262.pep     95
Beta Ori A      05:14:32  -08:12:07   34085  c034.pep   3042
Alpha Aur       05:16:42  +45:59:53   34029  c142.pep   5728
Lambda Lep      05:19:35  -13:10:37   34816  c095.pep   1638
HD 34989        05:21:44  +08:25:44   34989  c179.pep    189
22 Ori          05:21:46  -00:22:59   35039  c352.pep   1080
23 Ori          05:22:50  +03:32:38   35149  c139.pep   2358
Eta Ori         05:24:29  -02:23:49   35411  c258.pep    460
25 Ori          05:24:45  +01:50:46   35439  c176.pep   1375
Gamma Ori       05:25:08  +06:21:00   35468  c246.pep    693
Beta Tau        05:26:18  +28:36:29   35497  c190.pep    301
Gamma Aur       05:26:18  +28:36:29   35497  c416.pep     76
Psi Ori         05:26:50  +03:05:46   35715  c505.pep    465
Beta Lep        05:28:15  -20:45:32   36079  c424.pep     54
HD 36166        05:29:55  +01:47:20   36166  c504.pep   1930
33 Ori          05:31:14  +03:17:31   36351  c343.pep    160
Upsilon Ori     05:31:56  -07:18:04   36512  c138.pep    559
Delta Ori A     05:32:00  -00:17:56   36486  c025.pep   7239
HD 36695        05:33:31  -01:09:22   36695  c178.pep    205
Beta Dor        05:33:37  -62:29:24   37350  c354.pep   2567
Phi1 Ori        05:34:49  +09:29:20   36822  c140.pep    744
Lambda Ori A    05:35:08  +09:56:02   36861  c026.pep   9138
Orion Neb       05:35:14  -05:22.5           c163.pep    560
NGC 1977        05:35:15  -04:53:12          c192.pep     96
Theta1 Ori C    05:35:17  -05:23:24   37022  c096.pep    831
Theta2 Ori A    05:35:23  -05:24:58   37041  c131.pep    608
42 Ori          05:35:23  -04:50:17   37018  c164.pep   1259
Iota Ori        05:35:26  -05:54:36   37043  c033.pep   4420
Epsilon Ori     05:36:13  -01:12:07   37128  c027.pep   5773
HD 37303        05:37:27  -05:56:17   37303  c173.pep    200
Zeta Tau        05:37:39  +21:08:31   37202  c023.pep   1337
Sigma Ori       05:38:45  -02:36:00   37468  c326.pep   1137
Omega Ori       05:39:11  +04:07:16   37490  c530.pep    113
Alpha Col       05:39:39  -34:04:26   37795  c036.pep   2467
Zeta Ori A      05:40:46  -01:56:35   37742  c024.pep   6009
Mu Col          05:46:00  -32:18:22   38666  c031.pep   5746
Zeta Lep        05:46:57  -14:49:19   38678  c449.pep      6
Kappa Ori       05:47:45  -09:40:12   38771  c035.pep  10512
Beta Col        05:50:58  -35:46:05   39425  c453.pep     90
Alpha Ori       05:55:10  +07:24:25   39801  c097.pep   1965
139 Tau         05:58:00  +25:57:14   40111  c022.pep   2428
Delta Aur       05:59:32  +54:17:06   40035  c415.pep    208
Beta Aur        05:59:32  +44:56:53   40183  c524.pep     42
Theta Aur       05:59:43  +37:12:47   40312  c342.pep    368
HD 41335        06:04:13  -06:42:32   41335  c340.pep   3963
17 Lep          06:04:59  -16:29:02   41511  c360.pep   1068
HD 41161        06:05:52  +48:14:58   41161  c185.pep    257
Delta Pic       06:10:18  -54:58:08   42933  c098.pep    760
7 Mon           06:19:43  -07:49:23   44112  c527.pep     18
Zeta CMa        06:20:19  -30:03:47   44402  c344.pep    589
HD 44506        06:20:36  -34:08:38   44506  c180.pep   2458
Beta CMa        06:22:42  -17:57:22   44743  c038.pep   1838
Mu Gem          06:22:58  +22:30:50   44478  c417.pep     66
Alpha Car       06:23:57  -52:41:46   45348  c086.pep   1262
HD 45995        06:31:10  +11:15:04   45995  c189.pep    307
Xi1 CMa         06:31:51  -23:25:05   46328  c141.pep    240
HD 46966        06:36:26  +06:04:59   46966  c274.pep    150
HD 47129        06:37:24  +06:08:06   47129  c168.pep   1505
Gamma Gem       06:37:43  +16:23:56   47105  c202.pep   1880
Nu Pup          06:37:46  -43:11:46   47670  c502.pep     18
HD 47240        06:37:53  +04:57:25   47240  c273.pep    305
15 Mon          06:40:59  +09:53:46   47839  c028.pep   5006
HD 48099        06:41:59  +06:20:42   48099  c203.pep    232
HD 48434        06:43:39  +03:55:55   48434  c271.pep    360
Alpha CMa A     06:45:09  -16:42:58   48915  c155.pep   8465
Alpha CMa AB    06:45:09  -16:42:58   48915  c174.pep   1736
Kappa CMa       06:49:50  -32:30:32   50013  c523.pep    237
Theta Gem       06:52:47  +33:57:40   50019  c425.pep     60
15 CMa          06:53:33  -20:13:26   50707  c272.pep     45
HD 50896        06:54:13  -23:55:41   50896  c188.pep   1996
HD 51283        06:55:47  -22:56:28   51283  c181.pep    195
Iota CMa        06:56:08  -17:03:14   51309  c266.pep     20
Epsilon CMa     06:58:37  -28:58:19   52089  c037.pep   3391
HD 52918        07:02:55  -04:14:20   52918  c183.pep    800
Omicron2 CMa    07:03:01  -23:49:59   53138  c045.pep   3857
Gamma CMa       07:03:46  -15:37:59   53244  c156.pep     55
HD 53975        07:06:36  -12:23:38   53975  c204.pep     69
Delta CMa       07:08:24  -26:23:35   54605  c430.pep     85
HD 54662        07:09:20  -10:20:49   54662  c205.pep    698
27 CMa          07:14:15  -26:21:11   56014  c363.pep     84
HD 55879        07:14:28  -10:19:01   55879  c157.pep   2678
Omega CMa       07:14:49  -26:46:23   56139  c263.pep    784
29 CMa          07:18:40  -24:33:32   57060  c047.pep   2736
Tau CMa         07:18:42  -24:57:14   57061  c046.pep   4352
R CMa           07:19:28  -16:23:36   57167  c362.pep    404
Delta Gem       07:20:07  +21:58:55   56986  c212.pep    172
HD 57682        07:22:02  -08:58:44   57682  c206.pep     62
Eta CMa         07:24:06  -29:18:11   58350  c042.pep   1428
Iota Gem        07:25:44  +27:47:53   58207  c448.pep     60
HD 58978        07:26:59  -23:05:10   58978  c182.pep    210
Beta CMi        07:27:09  +08:17:20   58715  c211.pep    282
HD 60848        07:37:06  +16:54:15   60848  c248.pep     48
Alpha CMi       07:39:18  +05:13:30   61421  c087.pep   4521
Sigma Gem       07:43:19  +28:53:02   62044  c275.pep    654
3 Pup           07:43:48  -28:57:18   62623  c090.pep     12
Beta Gem        07:45:19  +28:01:34   62509  c081.pep   4165
HD 63578        07:47:31  -46:36:32   63578  c284.pep    218
HD 63462        07:48:05  -25:56:13   63462  c264.pep    534
Xi Pup          07:49:18  -24:51:36   63700  c457.pep     66
HD 64722        07:52:30  -54:22:01   64722  c290.pep    145
HD 64503        07:52:39  -38:51:47   64503  c276.pep    162
HD 64740        07:53:04  -49:36:47   64740  c103.pep   2416
HD 64760        07:53:18  -48:06:11   64760  c169.pep   1429
Chi Car         07:56:47  -52:58:55   65575  c346.pep   1053
HD 65460        07:56:58  -43:30:00   65460  c283.pep    224
V Pup           07:58:14  -49:14:42   65818  c089.pep   2162
54 Cam          08:02:36  +57:16:28   65626  c367.pep    316
Zeta Pup        08:03:35  -40:00:11   66811  c044.pep  11546
Rho Pup         08:07:33  -24:18:14   67523  c458.pep     72
Gamma2 Vel      08:09:32  -47:20:13   68273  c043.pep   4486
HD 68217        08:09:36  -44:07:23   68217  c287.pep    198
HD 68980        08:13:30  -35:54:00   68980  c531.pep    275
HD 69106        08:14:04  -36:57:09   69106  c286.pep    150
HD 70839        08:21:12  -57:58:23   70839  c296.pep    150
HD 71510        08:25:29  -51:43:41   71510  c292.pep    155
HD 72108        08:29:05  -47:55:44   72108  c053.pep    745
HD 72127        08:29:28  -44:43:30   72127  c289.pep    155
FY Vel          08:32:23  -49:36:06   72754  c361.pep     36
Delta Hya       08:37:39  +05:42:14   73262  c414.pep     40
Omicron Vel     08:40:18  -52:55:19   74195  c282.pep    187
HD 74375        08:40:37  -59:45:40   74375  c108.pep   1277
HD 74455        08:42:16  -48:05:56   74455  c051.pep   2035
Eta Hya         08:43:13  +03:23:56   74280  c534.pep      5
Alpha Pyx       08:43:36  -33:11:10   74575  c265.pep   1084
HD 74753        08:43:40  -49:49:23   74753  c106.pep    166
HD 74395        08:43:40  -07:14:02   74395  c554.pep     24
Delta Vel       08:44:42  -54:42:29   74956  c533.pep     90
12 Hya          08:46:23  -13:32:53   74918  c552.pep     48
HD 75311        08:46:42  -56:46:12   75311  c297.pep    183
HD 75821        08:50:34  -46:31:44   75821  c052.pep    931
Zeta Hya        08:55:24  +05:56:46   76294  c497.pep     48
GP Vel          09:02:07  -40:33:17   77581  c268.pep     95
Kappa Cnc       09:07:45  +10:40:05   78316  c162.pep    305
Lambda Vel      09:08:00  -43:25:59   78647  c187.pep   2016
A Car           09:10:58  -58:58:01   79351  c514.pep    591
Beta Car        09:13:12  -69:43:01   80007  c558.pep     70
Kappa Vel       09:22:07  -55:00:40   81188  c345.pep   1330
Alpha Hya       09:27:35  -08:39:32   81797  c455.pep    102
Theta UMa       09:32:51  +51:40:37   82328  c161.pep    324
24 UMa          09:34:29  +69:49:48   82210  c525.pep     42
L Car           09:45:15  -62:30:28   84810  c378.pep    299
Epsilon Leo     09:45:51  +23:46:26   84441  c427.pep     60
HD 84816        09:46:30  -44:45:18   84816  c285.pep    222
HD 86606        09:56:10  -71:23:20   86606  c193.pep     10
Eta Leo         10:07:20  +16:45:47   87737  c279.pep    100
Alpha Leo       10:08:22  +11:58:01   87901  c029.pep   4456
Lambda Hya      10:10:35  -12:21:14   88284  c454.pep    126
Lambda UMa      10:17:06  +42:54:50   89021  c447.pep     18
NGC 3242        10:24:48  -18:38:00          c260.pep   2614
PP Car          10:32:01  -61:41:07   91465  c299.pep    335
Rho Leo         10:32:49  +09:18:25   91316  c030.pep   6035
37 LMi          10:38:43  +31:58:34   92125  c553.pep     46
HD 92740        10:41:18  -59:40:37   92740  c057.pep     69
Theta Car       10:42:57  -64:23:38   93030  c056.pep   4074
Eta Car         10:45:04  -59:41:02   93308  c194.pep    890
Delta2 Cha      10:45:47  -80:32:24   93845  c240.pep    881
HD 93607        10:46:51  -64:22:59   93607  c508.pep      6
HD 93521        10:48:23  +37:34:13   93521  c186.pep   2479
HD 93840        10:49:09  -46:46:42   93840  c195.pep     17
Nu Hya          10:49:37  -16:11:38   93813  c436.pep    120
Beta UMa        11:01:50  +56:22:55   95418  c509.pep    846
Theta Leo       11:14:14  +15:25:44   97633  c218.pep    634
HD 97991        11:16:12  -03:28:20   97991  c298.pep    549
Nu UMa          11:18:29  +33:05:38   98262  c429.pep     84
Delta Crt       11:19:20  -14:46:44   98430  c503.pep     30
HD 99171        11:24:22  -42:40:08   99171  c196.pep    129
Xi Hya          11:33:00  -31:51:29  100407  c435.pep     48
HR 4453         11:33:37  -40:35:13  100493  c512.pep    324
Chi UMa         11:46:03  +47:46:44  102224  c426.pep     60
Beta Leo        11:49:04  +14:34:19  102647  c538.pep     59
HD 102776       11:49:41  -63:47:17  102776  c270.pep     30
Gamma UMa       11:53:50  +53:41:42  103287  c278.pep    852
HD 104337       12:00:51  -19:39:32  104337  c197.pep    275
Delta Cen       12:08:22  -50:43:19  105435  c291.pep    345
Epsilon Crv     12:10:07  -22:37:12  105707  c464.pep     20
Delta Cru       12:15:09  -58:44:56  106490  c104.pep   2452
HR 4665         12:15:42  +72:33:04  106677  c364.pep    380
Gamma Crv       12:15:48  -17:32:31  106625  c216.pep    244
Beta Cha        12:18:21  -79:18:43  106911  c463.pep      5
Epsilon Cru     12:21:22  -60:24:04  107446  c438.pep     72
Alpha1 Cru      12:26:36  -63:05:56  108248  c105.pep   1550
Delta Crv       12:29:52  -16:30:58  108767  c217.pep    298
Kappa Dra       12:33:29  +69:47:17  109387  c338.pep    702
Beta Crv        12:34:23  -23:23:49  109379  c465.pep     25
HR 4830         12:42:50  -63:03:32  110432  c368.pep    454
Beta Cru        12:47:43  -59:41:20  111123  c303.pep    636
Epsilon UMa     12:54:02  +55:57:36  112185  c102.pep   1149
HD 112244       12:55:57  -56:50:10  112244  c114.pep   1297
Alpha2 CVn      12:56:02  +38:19:05  112413  c092.pep   1184
Epsilon Vir     13:02:11  +10:57:32  113226  c437.pep    150
Xi Cen          13:06:55  -49:54:22  113791  c532.pep     36
Theta Mus       13:08:07  -65:18:22  113904  c116.pep   1680
20 CVn          13:17:32  +40:34:19  115604  c536.pep     18
Alpha Vir       13:25:12  -11:09:40  116658  c055.pep   8973
HR 5110         13:34:48  +37:10:59  118216  c348.pep   4207
Epsilon Cen     13:39:53  -53:27:58  118716  c302.pep   1867
Eta UMa         13:47:32  +49:18:47  120315  c058.pep   2353
Nu Cen          13:49:30  -41:41:17  120307  c115.pep    439
Mu Cen          13:49:37  -42:28:26  120324  c214.pep   1104
3 Cen A         13:51:50  -32:59:38  120709  c111.pep    917
Eta Boo         13:54:41  +18:23:53  121370  c280.pep   1601
Zeta Cen        13:55:32  -47:17:17  121263  c062.pep   2784
Phi Cen         13:58:16  -42:06:04  121743  c198.pep    275
Upsilon1 Cen    13:58:41  -44:48:14  121790  c267.pep     40
Beta Cen A      14:03:49  -60:22:23  122451  c049.pep   8207
Alpha Dra       14:04:23  +64:22:34  123299  c293.pep     75
Chi Cen         14:06:03  -41:10:48  122980  c210.pep    576
Pi Hya          14:06:22  -26:40:55  123123  c515.pep     36
Alpha Boo       14:15:40  +19:10:55  124897  c054.pep   4360
Iota Vir        14:16:01  -06:00:04  124850  c543.pep     54
HD 125288       14:20:19  -56:23:13  125288  c511.pep    132
Epsilon Aps     14:22:23  -80:06:32  124771  c537.pep      6
HD 125823       14:23:02  -39:30:43  125823  c199.pep   1088
Tau1 Lup        14:26:08  -45:13:16  126341  c277.pep    110
Gamma Boo       14:32:05  +38:18:29  127762  c311.pep    416
Sigma Lup       14:32:37  -50:27:25  127381  c308.pep     55
Eta Cen         14:35:30  -42:09:29  127972  c201.pep   1888
Rho Lup         14:37:53  -49:25:34  128345  c269.pep     20
Alpha Cen A     14:39:36  -60:50:02  128620  c110.pep   9034
Alpha Lup       14:41:56  -47:23:17  129056  c235.pep   1227
Alpha Cir       14:42:30  -64:58:30  128898  c461.pep     50
Alpha Aps       14:47:52  -79:02:42  129078  c469.pep     24
Xi Boo          14:51:23  +19:06:04  131156  c374.pep    499
Beta Lup        14:58:32  -43:08:02  132058  c117.pep    269
Kappa Cen       14:59:10  -42:06:14  132200  c237.pep    108
Delta Lib       15:00:58  -08:31:08  132742  c350.pep     27
Zeta Lup        15:12:17  -52:05:56  134505  c459.pep     40
Delta Boo       15:15:30  +33:18:54  135722  c462.pep     62
HD 135160       15:16:36  -60:54:14  135160  c369.pep     90
Delta Cir       15:16:57  -60:57:29  135240  c328.pep    150
Beta Lib        15:17:00  -09:22:59  135742  c059.pep   1634
HD 135591       15:18:49  -60:29:46  135591  c124.pep   1129
Delta Lup       15:21:22  -40:38:53  136298  c118.pep    933
Beta CrB        15:27:50  +29:06:22  137909  c112.pep    694
Theta CrB       15:32:56  +31:21:32  138749  c428.pep      6
Alpha CrB       15:34:41  +26:42:54  139006  c510.pep    878
Gamma Lup       15:35:08  -41:10:01  138690  c301.pep    755
Gamma Lib       15:35:32  -14:47:20  138905  c507.pep     54
Tau Lib         15:38:39  -29:46:41  139365  c479.pep     12
Alpha Ser       15:44:16  +06:25:34  140573  c300.pep    624
Delta CrB       15:49:36  +26:04:05  141714  c506.pep     60
Chi Lup         15:50:58  -33:37:37  141556  c349.pep   1130
1 Sco           15:50:59  -25:45:04  141637  c119.pep    991
48 Lib          15:58:11  -14:16:44  142983  c320.pep    340
Pi Sco          15:58:51  -26:06:50  143018  c063.pep   3158
Eta Lup A       16:00:07  -38:23:49  143118  c207.pep    969
Delta Sco       16:00:20  -22:37:19  143275  c064.pep   7175
Upsilon Her     16:02:48  +46:02:13  144206  c227.pep     90
Beta1 Sco       16:05:26  -19:48:22  144217  c120.pep   1826
Theta Lup       16:06:36  -36:48:07  144294  c393.pep     16
Omega1 Sco      16:06:48  -20:40:08  144470  c121.pep   1621
Phi Her         16:08:46  +44:56:06  145389  c213.pep    948
Nu Sco AB       16:12:00  -19:27:40  145502  c123.pep   2050
Delta Oph       16:14:21  -03:41:38  146051  c481.pep    126
Sigma CrB       16:14:41  +33:51:32  146361  c375.pep    384
M80             16:17:06  -22:59:00          c321.pep    896
Epsilon Oph     16:18:19  -04:41:35  146791  c439.pep     78
Tau Her         16:19:44  +46:18:47  147394  c113.pep    448
Sigma Sco       16:21:11  -25:35:35  147165  c061.pep   5843
Eta Dra         16:24:00  +61:30:50  148387  c305.pep    723
Rho Oph A       16:25:35  -23:26:49  147933  c122.pep   3107
Chi Oph         16:27:01  -18:27:22  148184  c109.pep   2876
Epsilon Nor     16:27:11  -47:33:18  147971  c460.pep      5
Alpha Sco A     16:29:24  -26:25:55  148478  c125.pep    689
22 Sco          16:30:12  -25:06:54  148605  c126.pep   1759
Beta Her        16:30:13  +21:29:24  148856  c480.pep     36
Lambda Oph      16:30:55  +01:59:02  148857  c472.pep      6
HD 148937       16:33:53  -48:06:40  148937  c370.pep     25
Mu Nor          16:34:05  -44:02:42  149038  c060.pep   4423
Tau Sco         16:35:53  -28:12:58  149438  c003.pep   6200
HD 149404       16:36:23  -42:51:32  149404  c209.pep    273
V600 Her        16:36:58  +14:28:31  149881  c200.pep    872
Zeta Oph        16:37:10  -10:34:01  149757  c002.pep  23355
Zeta Her        16:41:17  +31:36:11  150680  c306.pep   1086
Beta Aps        16:43:05  -77:31:05  149324  c484.pep     12
Epsilon UMi     16:45:58  +82:02:13  153751  c358.pep   3458
HD 150898       16:47:19  -58:20:28  150898  c128.pep   1219
Alpha TrA       16:48:40  -69:01:41  150798  c434.pep    178
V1010 Oph       16:49:28  -15:40:04  151676  c371.pep     25
Epsilon Sco     16:50:10  -34:17:35  151680  c385.pep     41
HD 151804       16:51:34  -41:13:52  151804  c065.pep   1254
Mu1 Sco         16:51:52  -38:02:53  151890  c127.pep   1141
Zeta1 Sco       16:54:00  -42:21:43  152236  c066.pep    167
HD 152408       16:54:58  -41:09:04  152408  c067.pep     51
V861 Sco        16:56:36  -40:49:24  152667  c372.pep   2491
Kappa Oph       16:57:40  +09:22:30  153210  c386.pep     34
Epsilon Her     17:00:17  +30:55:34  153808  c478.pep      6
V884 Sco        17:03:57  -37:50:39  153919  c231.pep   3230
Zeta Dra        17:08:47  +65:42:54  155763  c107.pep    789
Alpha1 Her      17:14:39  +14:23:24  156014  c324.pep    378
Pi Her          17:15:03  +36:48:32  156283  c466.pep    123
HD 155806       17:15:19  -33:32:53  155806  c215.pep   1027
M92             17:17:06  +43:09:00          c304.pep    775
Theta Oph       17:22:01  -24:59:56  157056  c347.pep    210
Gamma Ara       17:25:24  -56:22:37  157246  c005.pep   3361
HD 157950       17:26:38  -05:05:13  157950  c540.pep     42
Beta Dra        17:30:26  +52:18:04  159181  c242.pep   1329
Upsilon Sco     17:30:46  -37:17:46  158408  c004.pep   2526
Alpha Ara       17:31:50  -49:52:34  158427  c535.pep    382
Lambda Sco      17:33:36  -37:06:14  158926  c001.pep   3326
Alpha Oph       17:34:56  +12:33:36  159561  c376.pep    334
Xi Ser          17:37:35  -15:23:56  159876  c382.pep    100
Iota Her        17:39:28  +46:00:22  160762  c099.pep   3971
Kappa Sco       17:42:29  -39:01:48  160578  c323.pep   1196
Beta Oph        17:43:28  +04:34:01  161096  c383.pep     85
Mu Her          17:46:28  +27:43:16  161797  c316.pep   2480
V453 Sco        17:56:16  -32:28:30  163181  c233.pep    154
Gamma Dra       17:56:36  +51:29:20  164058  c325.pep    666
Xi Her          17:57:46  +29:14:53  163993  c474.pep     20
Nu Her          17:58:30  +30:11:20  164136  c545.pep     53
Nu Oph          17:59:02  -09:46:26  163917  c476.pep     36
66 Oph          18:00:16  +04:22:08  164284  c310.pep   1429
67 Oph          18:00:39  +02:55:55  164353  c006.pep    777
HD 164402       18:01:54  -22:46:52  164402  c129.pep     93
96 Her          18:02:23  +20:50:02  164852  c519.pep     24
9 Sgr           18:03:52  -24:21:40  164794  c208.pep    324
70 Oph          18:05:27  +02:29:56  165341  c319.pep   1777
Gamma Sgr       18:05:48  -30:25:26  165135  c433.pep     60
Theta Ara       18:06:38  -50:05:31  165024  c101.pep   1594
102 Her         18:08:46  +20:48:50  166182  c473.pep     18
Mu Sgr          18:13:46  -21:03:32  166937  c377.pep    985
16 Sgr          18:15:13  -20:23:17  167263  c234.pep     58
15 Sgr          18:15:13  -20:43:41  167264  c241.pep   4030
Eta Sgr         18:17:38  -36:45:43  167618  c431.pep     84
HD 167756       18:18:40  -42:17:17  167756  c232.pep     10
Delta Sgr       18:21:00  -29:49:41  168454  c432.pep     90
Eta Ser         18:21:19  -02:53:56  168723  c443.pep     36
NGC 6624        18:23:40  -30:21:41          c288.pep   2614
Epsilon Sgr     18:24:10  -34:23:06  169022  c401.pep    400
Alpha Tel       18:26:58  -45:58:05  169467  c239.pep    121
Alpha Lyr       18:36:56  +38:47:02  172167  c070.pep   8500
HR 7084         18:46:43  +52:59:17  174237  c379.pep   1271
Beta Lyr        18:50:05  +33:21:47  174638  c071.pep   2460
Lambda Pav      18:52:13  -62:11:17  173948  c130.pep    550
Sigma Sgr       18:55:16  -26:17:49  175191  c007.pep   1468
Epsilon Aql     18:59:37  +15:04:05  176411  c541.pep     24
Zeta Aql        19:05:25  +13:51:47  177724  c384.pep     12
Tau Sgr         19:06:56  -27:40:16  177716  c399.pep     56
HR 7275         19:08:26  +52:25:34  179094  c373.pep    417
21 Aql          19:13:43  +02:17:38  179761  c475.pep      6
Eta Lyr         19:13:46  +39:08:46  180163  c147.pep    203
Kappa Cyg       19:17:06  +53:22:08  181276  c485.pep     12
2 Vul           19:17:44  +23:01:34  180968  c220.pep    389
26 Aql          19:20:33  -05:24:58  181391  c069.pep      5
Upsilon Sgr     19:21:44  -15:57:18  181615  c068.pep    776
2 Cyg           19:24:08  +29:37:16  182568  c517.pep     18
CH Cyg          19:24:33  +50:14:30  182917  c381.pep     80
Iota Aql        19:36:43  -01:17:10  184930  c467.pep      6
Kappa Aql       19:36:54  -07:01:41  184915  c134.pep   1647
Delta Cyg       19:44:59  +45:07:52  186882  c219.pep    233
HD 186994       19:45:38  +44:57:50  186994  c224.pep   1284
Gamma Aql       19:46:16  +10:36:47  186791  c387.pep    186
Delta Sge       19:47:23  +18:32:02  187076  c490.pep     45
Alpha Aql       19:50:47  +08:52:05  187642  c148.pep   1098
HD 188209       19:51:59  +47:01:41  188209  c150.pep   1543
9 Sge           19:52:22  +18:40:19  188001  c132.pep    878
Eta Aql         19:52:28  +01:00:22  187929  c380.pep    496
HD 188439       19:53:01  +47:48:25  188439  c223.pep     76
Eta Cyg         19:56:18  +35:04:59  188947  c544.pep     48
Theta1 Sgr      19:59:44  -35:16:34  189103  c468.pep      6
Delta Pav       20:08:44  -66:10:55  190248  c318.pep    988
28 Cyg          20:09:26  +36:50:24  191610  c520.pep    241
Omicron2 Cyg    20:15:28  +47:42:50  192909  c357.pep    132
P Cyg           20:17:47  +38:01:59  193237  c076.pep    943
HD 193322       20:18:07  +40:43:55  193322  c154.pep    807
Gamma Cyg       20:22:14  +40:15:25  194093  c077.pep    257
Alpha Pav       20:25:39  -56:44:06  193924  c008.pep   1162
Omega1 Cyg      20:30:04  +48:57:07  195556  c542.pep     12
Epsilon Del     20:33:13  +11:18:11  195810  c410.pep      6
Alpha Del       20:39:38  +15:54:43  196867  c477.pep      6
Alpha Cyg       20:41:26  +45:16:48  197345  c149.pep   1932
55 Cyg          20:48:56  +46:06:50  198478  c539.pep     12
HD 198820       20:52:00  +32:50:56  198820  c518.pep    822
HD 199579       20:56:35  +44:55:30  199579  c158.pep    999
59 Cyg          20:59:50  +47:31:16  200120  c012.pep   4085
60 Cyg          21:01:11  +46:09:22  200310  c167.pep    160
NGC 7027        21:07:02  +42:14:10          c333.pep    924
V1500 Cyg       21:11:37  +48:08:43          c243.pep   1216
Zeta Cyg        21:12:56  +30:13:37  202109  c396.pep    121
HD 202349       21:14:05  +37:46:54  202349  c221.pep     10
Upsilon Cyg     21:17:55  +34:53:49  202904  c151.pep   1332
68 Cyg          21:18:27  +43:56:46  203064  c152.pep   3699
69 Cyg          21:25:47  +36:40:01  204172  c222.pep     90
Zeta Cap        21:26:40  -22:24:40  204075  c471.pep     60
Beta Cep        21:28:40  +70:33:40  205021  c244.pep    467
M15             21:30:00  +12:10:00          c307.pep    844
Beta Aqr        21:31:34  -05:34:16  204867  c411.pep     38
Rho Cyg         21:33:59  +45:35:31  205435  c496.pep     30
Epsilon Cap     21:37:05  -19:27:58  205637  c294.pep    466
HD 206267       21:38:58  +57:29:20  206267  c228.pep     68
M30             21:39:48  +23:39:00          c313.pep    132
Nu Oct          21:41:29  -77:23:24  205478  c488.pep     48
Mu Cep          21:43:30  +58:46:48  206936  c254.pep    656
Epsilon Peg     21:44:11  +09:52:30  206778  c133.pep   2337
VV Cep          21:56:39  +63:37:32  208816  c251.pep     37
Omicron Aqr     22:03:19  -02:09:18  209409  c331.pep    437
Epsilon Ind     22:03:22  -56:47:10  209100  c238.pep   2426
HK Lac          22:04:56  +47:14:04  209813  c356.pep    894
19 Cep          22:05:09  +62:16:48  209975  c160.pep    802
Alpha Aqr       22:05:47  -00:19:12  209750  c085.pep   1505
Iota Aqr        22:06:26  -13:52:12  209819  c491.pep      6
Iota Peg        22:07:01  +25:20:42  210027  c389.pep     20
Alpha Gru       22:08:14  -46:57:40  209952  c009.pep   6657
AR Lac          22:08:41  +45:44:29  210334  c309.pep     52
35 Aqr          22:08:59  -18:31:12  210191  c229.pep     79
Lambda Cep      22:11:31  +59:24:50  210839  c083.pep    624
Alpha Tuc       22:18:30  -60:15:36  211416  c400.pep     19
31 Peg          22:21:31  +12:12:18  212076  c146.pep    871
Beta Lac        22:23:34  +52:13:44  212496  c494.pep    102
Pi Aqr          22:25:17  +01:22:41  212571  c312.pep   3620
Delta Cep       22:29:10  +58:24:54  213306  c442.pep     72
Alpha Lac       22:31:18  +50:16:59  213558  c405.pep      6
8 Lac A         22:35:52  +39:38:02  214168  c172.pep    160
HD 214080       22:36:06  -16:23:16  214080  c145.pep   2170
10 Lac          22:39:16  +39:03:00  214680  c013.pep   4601
Zeta Peg        22:41:28  +10:49:52  214923  c408.pep      5
12 Lac          22:41:29  +40:13:34  214993  c336.pep   1597
Eta Peg         22:43:00  +30:13:16  215182  c390.pep    106
HD 215733       22:47:02  +17:14:00  215733  c226.pep    190
Iota Cep        22:49:41  +66:12:04  216228  c398.pep     44
Mu Peg          22:50:00  +24:36:07  216131  c444.pep    102
HR 8703         22:53:02  +16:50:28  216489  c359.pep    404
16 Lac          22:56:24  +41:36:14  216916  c322.pep    258
EW Lac          22:57:05  +48:41:03  217050  c516.pep   1258
Alpha PsA       22:57:39  -29:37:19  216956  c295.pep    710
Omicron And     23:01:55  +42:19:34  217675  c014.pep   2732
Beta Peg        23:03:47  +28:04:59  217906  c255.pep    910
Beta Psc        23:03:53  +03:49:12  217891  c315.pep    163
1 Cas           23:06:37  +59:25:12  218376  c153.pep   1716
88 Aqr          23:09:27  -21:10:19  218594  c407.pep     42
7 And           23:12:33  +49:24:22  219080  c500.pep     24
HD 219188       23:14:00  +04:59:50  219188  c225.pep   1884
Gamma Psc       23:17:10  +03:16:55  219615  c451.pep     36
Gamma Tuc       23:17:26  -58:14:10  219571  c402.pep    106
Psi2 Aqr        23:17:54  -09:10:55  219688  c452.pep     72
NGC 7662        23:25:54  +42:32:06          c332.pep    816
Beta Scl        23:32:58  -37:49:05  221507  c135.pep     65
Lambda And      23:37:34  +46:27:29  222107  c159.pep   1148
Gamma Cep       23:39:21  +77:37:55  222404  c409.pep     53
Sigma Cas       23:59:00  +55:45:18  224572  c166.pep   1656
Airglow         24:00:00  +00:00:00          c143.pep    918
Lyman Alpha     24:00:00  +00:00:00          c048.pep   6796
Mars            24:00:00  +00:00:00          c177.pep   7554
Jupiter         24:00:00  +00:00:00          c050.pep  14921
Saturn-Titan    24:00:00  +00:00:00          c259.pep   3992
Comet 1975H     24:00:00  +00:00:00          c236.pep    680
Comet 1975N     24:00:00  +00:00:00          c281.pep    795
Comet D'Arrest  24:00:00  +00:00:00          c327.pep   1664
Kohoutek        24:00:00  +00:00:00          c091.pep    436



List compiled by jrc